createdAt,value
2023-03-07T06:32:07.602Z,975.68
2023-03-07T06:33:07.411Z,975.52
2023-03-07T06:34:07.711Z,975.62
2023-03-07T06:35:08.671Z,975.56
2023-03-07T06:36:08.598Z,975.58
2023-03-07T06:37:09.119Z,975.62
2023-03-07T06:38:08.525Z,975.53
2023-03-07T06:39:08.477Z,975.52
2023-03-07T06:40:08.512Z,975.65
2023-03-07T06:41:08.573Z,975.60
2023-03-07T06:42:08.491Z,975.56
2023-03-07T06:43:08.544Z,975.59
2023-03-07T06:44:08.395Z,975.63
2023-03-07T06:45:08.460Z,975.50
2023-03-07T06:46:08.532Z,975.50
2023-03-07T06:47:08.499Z,975.54
2023-03-07T06:48:08.410Z,975.48
2023-03-07T06:49:08.464Z,975.49
2023-03-07T06:50:08.402Z,975.52
2023-03-07T06:51:08.362Z,975.58
2023-03-07T06:52:08.568Z,975.61
2023-03-07T06:53:08.333Z,975.62
2023-03-07T06:54:08.371Z,975.59
2023-03-07T06:55:08.298Z,975.52
2023-03-07T06:56:08.351Z,975.54
2023-03-07T06:57:08.277Z,975.50
2023-03-07T06:58:08.305Z,975.53
2023-03-07T06:59:08.355Z,975.59
2023-03-07T07:00:08.284Z,975.52
2023-03-07T07:01:08.311Z,975.57
2023-03-07T07:02:08.299Z,975.55
2023-03-07T07:03:08.366Z,975.51
2023-03-07T07:04:08.224Z,975.53
2023-03-07T07:05:08.284Z,975.50
2023-03-07T07:06:08.309Z,975.57
2023-03-07T07:07:08.227Z,975.55
2023-03-07T07:08:08.197Z,975.45
2023-03-07T07:09:08.183Z,975.49
2023-03-07T07:10:08.188Z,975.54
2023-03-07T07:11:08.169Z,975.51
2023-03-07T07:12:08.127Z,975.56
2023-03-07T07:13:08.190Z,975.51
2023-03-07T07:14:08.143Z,975.49
2023-03-07T07:15:08.163Z,975.54
2023-03-07T07:16:08.210Z,975.54
2023-03-07T07:17:08.140Z,975.45
2023-03-07T07:18:09.869Z,975.49
2023-03-07T07:19:08.105Z,975.45
2023-03-07T07:20:08.116Z,975.47
2023-03-07T07:21:08.054Z,975.48
2023-03-07T07:22:08.035Z,975.41
2023-03-07T07:23:08.146Z,975.39
2023-03-07T07:24:08.033Z,975.43
2023-03-07T07:25:08.015Z,975.46
2023-03-07T07:26:08.020Z,975.47
2023-03-07T07:27:08.020Z,975.49
2023-03-07T07:28:07.996Z,975.38
2023-03-07T07:29:07.984Z,975.35
2023-03-07T07:30:08.136Z,975.42
2023-03-07T07:31:07.977Z,975.39
2023-03-07T07:32:08.112Z,975.33
2023-03-07T07:33:08.030Z,975.29
2023-03-07T07:34:07.969Z,975.33
2023-03-07T07:35:07.940Z,975.34
2023-03-07T07:36:08.048Z,975.27
2023-03-07T07:37:07.971Z,975.29
2023-03-07T07:38:07.890Z,975.35
2023-03-07T07:39:07.897Z,975.21
2023-03-07T07:40:07.856Z,975.27
2023-03-07T07:41:07.927Z,975.29
2023-03-07T07:42:07.921Z,975.25
2023-03-07T07:43:07.857Z,975.27
2023-03-07T07:44:08.431Z,975.28
2023-03-07T07:45:07.858Z,975.30
2023-03-07T07:46:07.900Z,975.28
2023-03-07T07:47:07.782Z,975.29
2023-03-07T07:48:07.811Z,975.17
2023-03-07T07:49:07.786Z,975.21
2023-03-07T07:50:07.785Z,975.14
2023-03-07T07:51:07.791Z,975.20
2023-03-07T07:52:07.762Z,975.18
2023-03-07T07:53:07.760Z,975.16
2023-03-07T07:54:07.733Z,975.17
2023-03-07T07:55:07.783Z,975.14
2023-03-07T07:56:07.864Z,975.18
2023-03-07T07:57:07.813Z,975.16
2023-03-07T07:58:07.753Z,975.21
2023-03-07T07:59:07.703Z,975.20
2023-03-07T08:00:07.752Z,975.18
2023-03-07T08:01:07.734Z,975.26
2023-03-07T08:02:07.694Z,975.18
2023-03-07T08:03:07.785Z,975.21
2023-03-07T08:04:07.670Z,975.19
2023-03-07T08:05:07.685Z,975.20
2023-03-07T08:06:07.665Z,975.19
2023-03-07T08:07:07.643Z,975.24
2023-03-07T08:08:07.674Z,975.18
2023-03-07T08:09:07.582Z,975.18
2023-03-07T08:10:07.631Z,975.26
2023-03-07T08:11:07.610Z,975.16
2023-03-07T08:12:07.549Z,975.11
2023-03-07T08:13:07.606Z,975.18
2023-03-07T08:14:07.543Z,975.14
2023-03-07T08:15:07.543Z,975.18
2023-03-07T08:16:07.605Z,975.17
2023-03-07T08:17:07.551Z,975.24
2023-03-07T08:18:07.496Z,975.16
2023-03-07T08:19:07.516Z,975.11
2023-03-07T08:20:07.510Z,975.15
2023-03-07T08:21:07.510Z,975.09
2023-03-07T08:22:07.486Z,975.17
2023-03-07T08:23:07.527Z,975.12
2023-03-07T08:24:07.442Z,975.12
2023-03-07T08:25:07.450Z,975.13
2023-03-07T08:26:07.496Z,975.17
2023-03-07T08:27:07.404Z,975.17
2023-03-07T08:28:07.426Z,975.07
2023-03-07T08:29:07.476Z,975.10
2023-03-07T08:30:07.386Z,975.16
2023-03-07T08:31:07.486Z,975.18
2023-03-07T08:32:07.520Z,975.16
2023-03-07T08:33:07.456Z,975.16
2023-03-07T08:34:07.334Z,975.09
2023-03-07T08:35:07.496Z,975.10
2023-03-07T08:36:07.441Z,975.01
2023-03-07T08:37:07.406Z,975.00
2023-03-07T08:38:07.337Z,975.05
2023-03-07T08:39:07.323Z,975.08
2023-03-07T08:40:07.332Z,975.07
2023-03-07T08:41:07.329Z,975.00
2023-03-07T08:42:07.358Z,975.16
2023-03-07T08:43:07.305Z,975.10
2023-03-07T08:44:07.241Z,975.03
2023-03-07T08:45:07.254Z,975.00
2023-03-07T08:46:07.315Z,975.02
2023-03-07T08:47:07.368Z,974.98
2023-03-07T08:48:07.256Z,975.06
2023-03-07T08:49:07.291Z,975.02
2023-03-07T08:50:07.201Z,974.93
2023-03-07T08:51:07.218Z,975.05
2023-03-07T08:52:07.191Z,974.92
2023-03-07T08:53:07.160Z,975.04
2023-03-07T08:54:07.332Z,975.09
2023-03-07T08:55:07.164Z,975.06
2023-03-07T08:56:07.490Z,975.04
2023-03-07T08:57:07.155Z,975.04
2023-03-07T08:58:07.169Z,975.06
2023-03-07T08:59:07.175Z,975.04
2023-03-07T09:00:07.122Z,974.99
2023-03-07T09:01:07.232Z,975.03
2023-03-07T09:02:07.159Z,975.01
2023-03-07T09:03:07.060Z,974.94
2023-03-07T09:04:07.070Z,974.92
2023-03-07T09:05:07.160Z,974.94
2023-03-07T09:06:07.053Z,974.97
2023-03-07T09:07:07.073Z,975.04
2023-03-07T09:08:07.016Z,975.03
2023-03-07T09:09:06.978Z,975.03
2023-03-07T09:10:07.025Z,975.07
2023-03-07T09:11:06.994Z,975.07
2023-03-07T09:12:07.096Z,975.04
2023-03-07T09:13:06.979Z,975.06
2023-03-07T09:14:06.988Z,975.02
2023-03-07T09:15:06.978Z,975.05
2023-03-07T09:16:07.042Z,975.05
2023-03-07T09:17:06.960Z,975.04
2023-03-07T09:18:06.961Z,974.96
2023-03-07T09:19:07.102Z,975.00
2023-03-07T09:20:06.921Z,975.02
2023-03-07T09:21:06.925Z,975.04
2023-03-07T09:22:06.924Z,974.99
2023-03-07T09:23:06.884Z,974.98
2023-03-07T09:24:06.890Z,974.98
2023-03-07T09:25:06.885Z,975.01
2023-03-07T09:26:06.923Z,974.96
2023-03-07T09:27:06.860Z,974.96
2023-03-07T09:28:06.855Z,974.99
2023-03-07T09:29:06.838Z,974.94
2023-03-07T09:30:06.826Z,974.85
2023-03-07T09:31:06.956Z,974.91
2023-03-07T09:32:06.862Z,974.93
2023-03-07T09:33:06.790Z,974.87
2023-03-07T09:34:06.827Z,974.88
2023-03-07T09:35:06.807Z,974.83
2023-03-07T09:36:06.874Z,974.84
2023-03-07T09:37:06.775Z,974.68
2023-03-07T09:38:06.890Z,974.80
2023-03-07T09:39:06.730Z,974.72
2023-03-07T09:40:07.792Z,974.67
2023-03-07T09:41:06.694Z,974.74
2023-03-07T09:42:06.765Z,974.81
2023-03-07T09:43:06.711Z,974.76
2023-03-07T09:44:06.684Z,974.73
2023-03-07T09:45:06.670Z,974.70
2023-03-07T09:46:06.776Z,974.63
2023-03-07T09:47:06.672Z,974.69
2023-03-07T09:48:06.670Z,974.68
2023-03-07T09:49:06.849Z,974.70
2023-03-07T09:50:06.658Z,974.50
2023-03-07T09:51:11.770Z,974.59
2023-03-07T09:52:10.271Z,974.63
2023-03-07T09:53:06.638Z,974.67
2023-03-07T09:54:07.153Z,974.66
2023-03-07T09:55:06.577Z,974.63
2023-03-07T09:56:06.573Z,974.64
2023-03-07T09:57:06.581Z,974.70
2023-03-07T09:58:06.582Z,974.55
2023-03-07T09:59:20.451Z,974.55
2023-03-07T10:00:08.580Z,974.49
2023-03-07T10:01:06.654Z,974.53
2023-03-07T10:02:06.541Z,974.50
2023-03-07T10:03:06.554Z,974.60
2023-03-07T10:04:06.610Z,974.51
2023-03-07T10:05:06.486Z,974.53
2023-03-07T10:06:06.455Z,974.54
2023-03-07T10:07:06.506Z,974.59
2023-03-07T10:08:06.485Z,974.56
2023-03-07T10:09:06.517Z,974.54
2023-03-07T10:10:06.458Z,974.63
2023-03-07T10:11:06.444Z,974.66
2023-03-07T10:12:06.414Z,974.64
2023-03-07T10:13:06.436Z,974.64
2023-03-07T10:14:06.403Z,974.50
2023-03-07T10:15:06.481Z,974.61
2023-03-07T10:16:06.381Z,974.57
2023-03-07T10:17:07.411Z,974.53
2023-03-07T10:18:06.361Z,974.52
2023-03-07T10:19:06.398Z,974.50
2023-03-07T10:20:06.342Z,974.49
2023-03-07T10:21:06.351Z,974.46
2023-03-07T10:22:06.346Z,974.55
2023-03-07T10:23:06.281Z,974.57
2023-03-07T10:24:06.279Z,974.60
2023-03-07T10:25:06.342Z,974.61
2023-03-07T10:26:06.376Z,974.52
2023-03-07T10:27:06.319Z,974.49
2023-03-07T10:28:06.268Z,974.49
2023-03-07T10:29:06.248Z,974.47
2023-03-07T10:30:06.235Z,974.42
2023-03-07T10:31:06.369Z,974.45
2023-03-07T10:32:07.296Z,974.50
2023-03-07T10:33:06.831Z,974.50
2023-03-07T10:34:06.221Z,974.42
2023-03-07T10:35:06.228Z,974.52
2023-03-07T10:36:06.165Z,974.45
2023-03-07T10:37:09.206Z,974.50
2023-03-07T10:38:07.217Z,974.41
2023-03-07T10:39:06.157Z,974.42
2023-03-07T10:40:06.269Z,974.40
2023-03-07T10:41:06.638Z,974.43
2023-03-07T10:42:07.203Z,974.46
2023-03-07T10:43:06.108Z,974.41
2023-03-07T10:44:06.209Z,974.37
2023-03-07T10:45:06.120Z,974.46
2023-03-07T10:46:15.774Z,974.46
2023-03-07T10:47:08.355Z,974.33
2023-03-07T10:48:06.112Z,974.27
2023-03-07T10:49:08.679Z,974.33
2023-03-07T10:50:06.038Z,974.28
2023-03-07T10:51:06.074Z,974.46
2023-03-07T10:52:07.101Z,974.35
2023-03-07T10:53:05.998Z,974.34
2023-03-07T10:54:06.020Z,974.27
2023-03-07T10:55:05.991Z,974.46
2023-03-07T10:56:05.985Z,974.32
2023-03-07T10:57:06.111Z,974.33
2023-03-07T10:58:05.999Z,974.28
2023-03-07T10:59:06.544Z,974.30
2023-03-07T11:00:05.927Z,974.36
2023-03-07T11:01:05.952Z,974.28
2023-03-07T11:02:05.996Z,974.42
2023-03-07T11:03:05.897Z,974.35
2023-03-07T11:04:05.929Z,974.33
2023-03-07T11:05:05.983Z,974.26
2023-03-07T11:06:05.992Z,974.19
2023-03-07T11:07:05.904Z,974.21
2023-03-07T11:08:05.883Z,974.14
2023-03-07T11:09:05.859Z,974.17
2023-03-07T11:10:05.856Z,974.20
2023-03-07T11:11:05.860Z,974.19
2023-03-07T11:12:05.906Z,974.17
2023-03-07T11:13:05.861Z,974.14
2023-03-07T11:14:05.859Z,974.21
2023-03-07T11:15:05.772Z,974.16
2023-03-07T11:16:11.413Z,974.31
2023-03-07T11:17:07.828Z,974.14
2023-03-07T11:18:05.761Z,974.16
2023-03-07T11:19:05.811Z,974.15
2023-03-07T11:20:05.761Z,974.09
2023-03-07T11:21:05.782Z,974.10
2023-03-07T11:22:05.790Z,974.17
2023-03-07T11:23:05.717Z,974.16
2023-03-07T11:24:05.823Z,974.15
2023-03-07T11:25:05.648Z,974.09
2023-03-07T11:26:05.691Z,974.17
2023-03-07T11:27:05.748Z,974.11
2023-03-07T11:28:05.700Z,974.15
2023-03-07T11:29:05.741Z,974.11
2023-03-07T11:30:05.635Z,974.16
2023-03-07T11:31:05.715Z,974.15
2023-03-07T11:32:06.045Z,974.07
2023-03-07T11:33:06.680Z,974.07
2023-03-07T11:34:05.657Z,974.05
2023-03-07T11:35:05.597Z,974.15
2023-03-07T11:36:06.704Z,974.08
2023-03-07T11:37:05.634Z,974.05
2023-03-07T11:38:05.565Z,974.17
2023-03-07T11:39:05.579Z,974.19
2023-03-07T11:40:05.542Z,974.12
2023-03-07T11:41:05.675Z,974.12
2023-03-07T11:42:05.529Z,974.15
2023-03-07T11:43:06.050Z,974.12
2023-03-07T11:44:05.673Z,974.11
2023-03-07T11:45:07.062Z,974.10
2023-03-07T11:46:05.558Z,974.09
2023-03-07T11:47:05.554Z,974.22
2023-03-07T11:48:05.482Z,974.17
2023-03-07T11:49:05.441Z,974.18
2023-03-07T11:50:05.470Z,974.06
2023-03-07T11:51:05.492Z,974.10
2023-03-07T11:52:05.472Z,974.04
2023-03-07T11:53:05.403Z,974.09
2023-03-07T11:54:05.410Z,974.18
2023-03-07T11:55:05.405Z,974.16
2023-03-07T11:56:05.487Z,974.07
2023-03-07T11:57:05.467Z,974.04
2023-03-07T11:58:05.366Z,974.02
2023-03-07T11:59:05.454Z,974.08
2023-03-07T12:00:05.412Z,974.02
2023-03-07T12:01:05.362Z,974.06
2023-03-07T12:02:05.342Z,974.06
2023-03-07T12:03:05.350Z,974.06
2023-03-07T12:04:05.318Z,974.04
2023-03-07T12:05:05.331Z,974.03
2023-03-07T12:06:05.414Z,974.04
2023-03-07T12:07:05.302Z,974.09
2023-03-07T12:08:05.326Z,974.04
2023-03-07T12:09:05.275Z,973.96
2023-03-07T12:10:05.243Z,974.01
2023-03-07T12:11:05.279Z,974.02
2023-03-07T12:12:05.283Z,974.02
2023-03-07T12:13:05.304Z,974.08
2023-03-07T12:14:05.214Z,974.01
2023-03-07T12:15:05.952Z,973.96
2023-03-07T12:16:05.192Z,973.90
2023-03-07T12:17:05.211Z,973.98
2023-03-07T12:18:05.156Z,973.93
2023-03-07T12:19:05.199Z,973.93
2023-03-07T12:20:05.183Z,973.92
2023-03-07T12:21:05.174Z,974.01
2023-03-07T12:22:05.176Z,973.92
2023-03-07T12:23:05.167Z,973.98
2023-03-07T12:24:05.164Z,973.96
2023-03-07T12:25:05.089Z,973.93
2023-03-07T12:26:05.131Z,973.90
2023-03-07T12:27:06.098Z,973.89
2023-03-07T12:28:05.081Z,973.97
2023-03-07T12:29:05.079Z,973.92
2023-03-07T12:30:05.083Z,973.97
2023-03-07T12:31:05.085Z,973.99
2023-03-07T12:32:05.298Z,973.92
2023-03-07T12:33:05.135Z,973.93
2023-03-07T12:34:05.080Z,973.94
2023-03-07T12:35:05.021Z,973.87
2023-03-07T12:36:05.157Z,973.92
2023-03-07T12:37:05.005Z,973.90
2023-03-07T12:38:05.050Z,973.94
2023-03-07T12:39:05.005Z,973.90
2023-03-07T12:40:04.952Z,973.85
2023-03-07T12:41:05.604Z,973.92
2023-03-07T12:42:04.950Z,974.00
2023-03-07T12:43:04.946Z,973.95
2023-03-07T12:44:04.967Z,973.97
2023-03-07T12:45:04.925Z,973.94
2023-03-07T12:46:04.979Z,973.84
2023-03-07T12:47:04.875Z,973.87
2023-03-07T12:48:05.169Z,973.91
2023-03-07T12:49:05.134Z,973.92
2023-03-07T12:50:04.888Z,973.95
2023-03-07T12:51:04.857Z,973.96
2023-03-07T12:52:04.880Z,973.90
2023-03-07T12:53:04.836Z,973.92
2023-03-07T12:54:04.819Z,973.97
2023-03-07T12:55:04.823Z,973.91
2023-03-07T12:56:05.870Z,973.92
2023-03-07T12:57:04.835Z,973.91
2023-03-07T12:58:04.821Z,974.04
2023-03-07T12:59:04.799Z,973.92
2023-03-07T13:00:04.886Z,973.91
2023-03-07T13:01:04.836Z,973.96
2023-03-07T13:02:04.761Z,973.93
2023-03-07T13:03:04.797Z,973.83
2023-03-07T13:04:04.823Z,973.93
2023-03-07T13:05:04.671Z,973.91
2023-03-07T13:06:04.765Z,973.94
2023-03-07T13:07:04.720Z,973.92
2023-03-07T13:08:04.718Z,973.91
2023-03-07T13:09:04.687Z,973.98
2023-03-07T13:10:04.680Z,974.02
2023-03-07T13:11:04.676Z,973.93
2023-03-07T13:12:04.681Z,973.90
2023-03-07T13:13:04.675Z,973.96
2023-03-07T13:14:04.680Z,974.01
2023-03-07T13:15:04.655Z,973.97
2023-03-07T13:16:04.625Z,973.98
2023-03-07T13:17:04.597Z,974.06
2023-03-07T13:18:04.695Z,973.97
2023-03-07T13:19:04.618Z,974.04
2023-03-07T13:20:04.675Z,974.06
2023-03-07T13:21:04.542Z,974.09
2023-03-07T13:22:04.570Z,974.04
2023-03-07T13:23:04.630Z,974.07
2023-03-07T13:24:04.518Z,974.05
2023-03-07T13:25:04.544Z,974.14
2023-03-07T13:26:04.533Z,974.13
2023-03-07T13:27:05.413Z,974.19
2023-03-07T13:28:04.524Z,974.18
2023-03-07T13:29:04.575Z,974.17
2023-03-07T13:30:04.466Z,974.26
2023-03-07T13:31:04.465Z,974.26
2023-03-07T13:32:05.083Z,974.30
2023-03-07T13:33:04.496Z,974.30
2023-03-07T13:34:04.576Z,974.26
2023-03-07T13:35:04.503Z,974.31
2023-03-07T13:36:04.789Z,974.43
2023-03-07T13:37:04.547Z,974.41
2023-03-07T13:38:04.551Z,974.49
2023-03-07T13:39:05.278Z,974.47
2023-03-07T13:40:04.387Z,974.38
2023-03-07T13:41:04.506Z,974.38
2023-03-07T13:42:04.357Z,974.29
2023-03-07T13:43:04.394Z,974.36
2023-03-07T13:44:04.384Z,974.48
2023-03-07T13:45:04.302Z,974.42
2023-03-07T13:46:05.147Z,974.44
2023-03-07T13:47:04.398Z,974.39
2023-03-07T13:48:04.354Z,974.35
2023-03-07T13:49:04.306Z,974.34
2023-03-07T13:50:04.285Z,974.39
2023-03-07T13:51:04.292Z,974.45
2023-03-07T13:52:04.275Z,974.47
2023-03-07T13:53:04.313Z,974.50
2023-03-07T13:54:04.281Z,974.44
2023-03-07T13:55:04.228Z,974.35
2023-03-07T13:56:04.267Z,974.42
2023-03-07T13:57:04.317Z,974.42
2023-03-07T13:58:04.263Z,974.36
2023-03-07T13:59:04.211Z,974.49
2023-03-07T14:00:04.282Z,974.52
2023-03-07T14:01:04.317Z,974.47
2023-03-07T14:02:04.226Z,974.48
2023-03-07T14:03:04.437Z,974.58
2023-03-07T14:04:04.307Z,974.56
2023-03-07T14:05:04.222Z,974.52
2023-03-07T14:06:04.128Z,974.49
2023-03-07T14:07:04.256Z,974.62
2023-03-07T14:08:04.298Z,974.59
2023-03-07T14:09:04.237Z,974.58
2023-03-07T14:10:19.595Z,974.57
2023-03-07T14:11:07.907Z,974.58
2023-03-07T14:12:04.216Z,974.46
2023-03-07T14:13:04.153Z,974.49
2023-03-07T14:14:04.199Z,974.53
2023-03-07T14:15:04.073Z,974.47
2023-03-07T14:16:04.302Z,974.51
2023-03-07T14:17:04.139Z,974.63
2023-03-07T14:18:04.080Z,974.61
2023-03-07T14:19:19.904Z,974.59
2023-03-07T14:20:05.320Z,974.58
2023-03-07T14:21:04.445Z,974.69
2023-03-07T14:22:04.084Z,974.64
2023-03-07T14:23:03.985Z,974.66
2023-03-07T14:24:04.065Z,974.64
2023-03-07T14:25:04.226Z,974.70
2023-03-07T14:26:04.182Z,974.73
2023-03-07T14:29:22.466Z,974.81
2023-03-07T14:30:22.544Z,974.79
2023-03-07T14:31:22.475Z,974.78
2023-03-07T14:32:22.508Z,974.73
2023-03-07T14:33:22.506Z,974.75
2023-03-07T14:34:22.431Z,974.78
2023-03-07T14:35:23.635Z,974.68
2023-03-07T14:36:23.657Z,974.76
2023-03-07T14:37:23.646Z,974.78
2023-03-07T14:38:23.602Z,974.78
2023-03-07T14:39:23.622Z,974.78
2023-03-07T14:40:23.562Z,974.78
2023-03-07T14:41:23.534Z,974.81
2023-03-07T14:42:23.516Z,974.74
2023-03-07T14:43:23.561Z,974.82
2023-03-07T14:44:24.318Z,974.77
2023-03-07T14:45:23.524Z,974.72
2023-03-07T14:46:23.629Z,974.78
2023-03-07T14:47:23.509Z,974.80
2023-03-07T14:48:23.540Z,974.78
2023-03-07T14:49:23.519Z,974.74
2023-03-07T14:50:23.500Z,974.83
2023-03-07T14:51:23.489Z,974.76
2023-03-07T14:52:30.910Z,974.83
2023-03-07T14:53:25.601Z,974.78
2023-03-07T14:54:23.548Z,974.79
2023-03-07T14:55:23.511Z,974.77
2023-03-07T14:56:23.558Z,974.78
2023-03-07T14:57:23.459Z,974.82
2023-03-07T14:58:23.562Z,974.87
2023-03-07T14:59:29.098Z,974.84
2023-03-07T15:00:25.508Z,974.84
2023-03-07T15:01:23.543Z,974.86
2023-03-07T15:02:23.540Z,974.85
2023-03-07T15:03:23.396Z,974.87
2023-03-07T15:04:23.432Z,974.88
2023-03-07T15:05:23.560Z,974.87
2023-03-07T15:06:23.377Z,974.82
2023-03-07T15:07:23.312Z,974.83
2023-03-07T15:08:23.297Z,974.85
2023-03-07T15:09:24.175Z,974.84
2023-03-07T15:10:23.241Z,974.83
2023-03-07T15:11:23.244Z,974.83
2023-03-07T15:12:23.197Z,974.86
2023-03-07T15:13:23.233Z,974.91
2023-03-07T15:14:23.243Z,974.85
2023-03-07T15:15:23.235Z,974.92
2023-03-07T15:16:24.172Z,974.91
2023-03-07T15:17:23.196Z,974.88
2023-03-07T15:18:23.193Z,974.92
2023-03-07T15:19:23.214Z,974.88
2023-03-07T15:20:23.133Z,974.89
2023-03-07T15:21:23.152Z,974.92
2023-03-07T15:22:23.181Z,974.89
2023-03-07T15:23:23.210Z,974.90
2023-03-07T15:24:23.116Z,974.95
2023-03-07T15:25:25.782Z,974.89
2023-03-07T15:26:24.123Z,974.95
2023-03-07T15:27:23.073Z,974.87
2023-03-07T15:28:23.882Z,974.98
2023-03-07T15:29:23.071Z,974.96
2023-03-07T15:30:23.133Z,974.96
2023-03-07T15:31:23.150Z,974.94
2023-03-07T15:32:23.190Z,974.97
2023-03-07T15:33:23.147Z,975.00
2023-03-07T15:34:23.052Z,974.98
2023-03-07T15:35:23.074Z,974.94
2023-03-07T15:36:23.022Z,974.97
2023-03-07T15:37:23.089Z,974.97
2023-03-07T15:38:23.052Z,974.95
2023-03-07T15:39:23.152Z,974.91
2023-03-07T15:40:22.957Z,975.01
2023-03-07T15:41:23.010Z,975.03
2023-03-07T15:42:22.985Z,975.02
2023-03-07T15:43:22.996Z,974.97
2023-03-07T15:44:22.965Z,975.02
2023-03-07T15:45:23.030Z,975.00
2023-03-07T15:46:23.899Z,974.98
2023-03-07T15:47:22.980Z,975.01
2023-03-07T15:48:23.021Z,974.95
2023-03-07T15:49:22.945Z,974.98
2023-03-07T15:50:22.984Z,975.06
2023-03-07T15:51:22.912Z,975.03
2023-03-07T15:52:22.903Z,975.00
2023-03-07T15:53:22.996Z,974.98
2023-03-07T15:54:22.894Z,974.97
2023-03-07T15:55:22.934Z,975.01
2023-03-07T15:56:22.877Z,974.99
2023-03-07T15:57:22.865Z,974.99
2023-03-07T15:58:22.834Z,974.98
2023-03-07T15:59:22.843Z,974.97
2023-03-07T16:00:25.230Z,975.00
2023-03-07T16:01:22.857Z,975.03
2023-03-07T16:02:22.919Z,975.02
2023-03-07T16:03:22.908Z,975.07
2023-03-07T16:04:22.833Z,975.07
2023-03-07T16:05:22.778Z,975.09
2023-03-07T16:06:22.743Z,975.10
2023-03-07T16:07:22.740Z,975.10
2023-03-07T16:08:22.754Z,975.08
2023-03-07T16:09:22.767Z,975.15
2023-03-07T16:10:22.707Z,975.12
2023-03-07T16:11:22.685Z,975.06
2023-03-07T16:12:22.652Z,975.06
2023-03-07T16:13:56.347Z,975.06
2023-03-07T16:14:23.388Z,975.15
2023-03-07T16:15:22.621Z,975.10
2023-03-07T16:16:22.711Z,975.10
2023-03-07T16:17:22.589Z,975.09
2023-03-07T16:18:22.854Z,975.11
2023-03-07T16:19:22.708Z,975.10
2023-03-07T16:20:22.610Z,975.11
2023-03-07T16:21:23.425Z,975.14
2023-03-07T16:22:22.606Z,975.10
2023-03-07T16:23:22.600Z,975.14
2023-03-07T16:24:22.578Z,975.15
2023-03-07T16:25:23.196Z,975.12
2023-03-07T16:26:22.726Z,975.16
2023-03-07T16:27:22.564Z,975.17
2023-03-07T16:28:23.364Z,975.20
2023-03-07T16:29:22.543Z,975.11
2023-03-07T16:30:22.502Z,975.14
2023-03-07T16:31:23.011Z,975.15
2023-03-07T16:33:06.130Z,975.18
2023-03-07T16:35:20.460Z,975.19
2023-03-07T16:38:01.021Z,975.18
2023-03-07T16:39:12.210Z,975.18
2023-03-07T16:40:00.824Z,975.16
2023-03-07T16:41:00.568Z,975.21
2023-03-07T16:42:01.762Z,975.15
2023-03-07T16:43:02.394Z,975.13
2023-03-07T16:44:01.781Z,975.18
2023-03-07T16:45:01.882Z,975.16
2023-03-07T16:46:05.361Z,975.24
2023-03-07T16:49:00.603Z,975.21
2023-03-07T16:50:08.164Z,975.21
2023-03-07T16:52:44.305Z,975.32
2023-03-07T16:53:44.490Z,975.23
2023-03-07T16:54:44.217Z,975.24
2023-03-07T16:57:26.506Z,975.30
2023-03-07T17:08:06.987Z,975.37
2023-03-07T17:17:57.152Z,975.49
2023-03-07T17:18:58.332Z,975.51
2023-03-07T17:19:57.214Z,975.53
2023-03-07T17:20:57.032Z,975.47
2023-03-07T17:21:57.051Z,975.56
2023-03-07T17:22:56.982Z,975.53
2023-03-07T17:24:05.838Z,975.52
2023-03-07T17:24:58.587Z,975.49
2023-03-07T17:25:58.478Z,975.56
2023-03-07T17:26:58.261Z,975.55
2023-03-07T17:27:58.120Z,975.56
2023-03-07T17:28:58.147Z,975.55
2023-03-07T17:29:58.134Z,975.56
2023-03-07T17:30:58.207Z,975.61
2023-03-07T17:31:58.167Z,975.55
2023-03-07T17:32:58.057Z,975.66
2023-03-07T17:33:58.181Z,975.62
2023-03-07T17:34:58.177Z,975.57
2023-03-07T17:35:58.220Z,975.57
2023-03-07T17:36:58.093Z,975.54
2023-03-07T17:37:58.151Z,975.61
2023-03-07T17:38:58.124Z,975.60
2023-03-07T17:39:58.224Z,975.62
2023-03-07T17:40:58.000Z,975.70
2023-03-07T17:42:31.853Z,975.65
2023-03-07T17:42:58.932Z,975.76
2023-03-07T17:43:57.987Z,975.73
2023-03-07T17:47:29.679Z,975.80
2023-03-07T17:48:29.798Z,975.79
2023-03-07T17:49:29.983Z,975.78
2023-03-07T17:50:29.617Z,975.83
2023-03-07T17:51:29.570Z,975.82
2023-03-07T17:52:29.545Z,975.75
2023-03-07T17:53:29.527Z,975.80
2023-03-07T17:54:29.537Z,975.84
2023-03-07T17:55:37.080Z,975.80
2023-03-07T17:56:29.534Z,975.86
2023-03-07T17:57:29.516Z,975.81
2023-03-07T17:58:29.458Z,975.79
2023-03-07T17:59:29.456Z,975.86
2023-03-07T18:00:29.434Z,975.88
2023-03-07T18:01:30.715Z,975.95
2023-03-07T18:02:30.646Z,975.88
2023-03-07T18:03:30.712Z,975.94
2023-03-07T18:05:49.727Z,975.86
2023-03-07T18:06:49.706Z,975.92
2023-03-07T18:07:49.681Z,975.91
2023-03-07T18:09:24.440Z,975.93
2023-03-07T18:09:58.785Z,975.99
2023-03-07T18:10:53.063Z,975.99
2023-03-07T18:11:50.821Z,976.00
2023-03-07T18:12:51.430Z,976.03
2023-03-07T18:13:50.715Z,976.07
2023-03-07T18:14:50.710Z,976.12
2023-03-07T18:15:50.800Z,976.10
2023-03-07T18:16:50.794Z,976.11
2023-03-07T18:17:50.696Z,976.12
2023-03-07T18:18:59.423Z,976.11
2023-03-07T18:19:52.697Z,976.16
2023-03-07T18:21:23.274Z,976.11
2023-03-07T18:22:23.405Z,976.19
2023-03-07T18:22:50.793Z,976.10
2023-03-07T18:24:24.667Z,976.15
2023-03-07T18:24:51.015Z,976.16
2023-03-07T18:25:50.747Z,976.14
2023-03-07T18:26:50.591Z,976.20
2023-03-07T18:27:50.585Z,976.20
2023-03-07T18:28:51.545Z,976.25
2023-03-07T18:29:50.612Z,976.16
2023-03-07T18:30:50.893Z,976.15
2023-03-07T18:31:52.442Z,976.21
2023-03-07T18:34:48.927Z,976.22
2023-03-07T18:35:56.621Z,976.21
2023-03-07T18:36:56.517Z,976.23
2023-03-07T18:59:37.659Z,976.44
2023-03-07T19:17:27.313Z,976.64
2023-03-07T19:23:01.573Z,976.65
2023-03-07T19:31:40.589Z,976.66
2023-03-07T19:35:41.488Z,976.82
2023-03-07T19:36:45.169Z,976.79
2023-03-07T19:37:42.714Z,976.74
2023-03-07T19:38:53.832Z,976.80
2023-03-07T19:41:59.333Z,976.81
2023-03-07T19:43:11.484Z,976.85
2023-03-07T19:45:55.790Z,976.93
2023-03-07T19:47:04.939Z,976.88
2023-03-07T19:50:49.479Z,976.91
2023-03-07T19:54:17.455Z,977.02
2023-03-07T19:59:00.661Z,976.94
2023-03-07T20:00:00.118Z,976.95
2023-03-07T20:02:49.678Z,976.95
2023-03-07T20:13:33.718Z,976.97
2023-03-07T20:14:39.475Z,977.08
2023-03-07T20:16:58.678Z,977.12
2023-03-07T20:18:07.403Z,977.13
2023-03-07T20:29:18.189Z,977.25
2023-03-07T20:30:25.967Z,977.24
2023-03-07T20:32:45.035Z,977.34
2023-03-07T20:39:08.256Z,977.38
2023-03-07T20:40:08.300Z,977.29
2023-03-07T20:41:09.270Z,977.34
2023-03-07T20:42:08.820Z,977.32
2023-03-07T20:43:08.160Z,977.29
2023-03-07T20:44:08.788Z,977.30
2023-03-07T20:45:19.315Z,977.24
2023-03-07T20:46:10.852Z,977.28
2023-03-07T20:47:08.145Z,977.32
2023-03-07T20:48:08.497Z,977.29
2023-03-07T20:49:08.167Z,977.29
2023-03-07T20:50:09.487Z,977.33
2023-03-07T20:51:19.255Z,977.26
2023-03-07T20:52:10.353Z,977.33
2023-03-07T20:53:09.342Z,977.33
2023-03-07T20:54:09.292Z,977.40
2023-03-07T20:55:09.279Z,977.39
2023-03-07T20:56:41.748Z,977.32
2023-03-07T20:57:10.891Z,977.43
2023-03-07T20:58:11.114Z,977.39
2023-03-07T21:01:09.989Z,977.35
2023-03-07T21:02:15.971Z,977.35
2023-03-07T21:04:58.824Z,977.40
2023-03-07T21:06:06.522Z,977.37
2023-03-07T21:10:10.261Z,977.56
2023-03-07T21:11:18.903Z,977.56
2023-03-07T21:12:18.675Z,977.67
2023-03-07T21:17:58.824Z,977.78
2023-03-07T21:19:03.127Z,977.76
2023-03-07T21:26:37.257Z,977.75
2023-03-07T21:27:44.865Z,977.83
2023-03-07T21:30:47.363Z,977.85
2023-03-07T21:31:53.595Z,977.85
2023-03-07T21:32:53.447Z,977.90
2023-03-07T21:36:01.463Z,978.02